LiveATC.Net - Listen to live air traffic control over the Internet! Contact LiveATC.net for advertising information


ICAO: RPLL  IATA: MNL   Airport: Ninoy Aquino International Airport
City: Manila
Country: Philippines   Continent: Asia
RPLL METAR Weather: RPLL 302200Z VRB02KT 9999 FEW025 SCT300 27/24 Q1009 NOSIG RMK A2980
RPLL Flight Activity (FlightAware)
RPLL Tower
Feed Status: DOWN
Last heard on: 2015-07-30 18:55:05 (0 days 4 hours 7 minutes ago)
RPLL Tower Audio Archives
FacilityFrequency
Manila Tower118.100


NOTICE

Unauthorized use prohibited. See LiveATC.net Terms of Service


Find LiveATC Audio Streams


Airport/ARTCC Code

Frequency
(e.g., 124.400, 128.75)
Site-wide search

Browse LiveATC Feeds
LiveATC Coverage Map
Top 50 LiveATC Feeds
Bad Weather Areas

LiveATC FAQ
Offer a LiveATC Feed
Contact LiveATC.net
Press Inquiries

LiveATC on iPhone
LiveATC on Android

LiveATC Mobile
(Mobile browser)

ATC Audio Archives
Interesting Recordings

LiveATC Forums


Home Page
About LiveATC.net
Make a Donation
LiveATC Bookstore

Terms of Use
Privacy Policy

ATC/Radar Sites
U.S. ARTCC Freqs
Canadian Air Freqs

AIRMETs/SIGMETs

FAA Airport Status
Nat'l Airspace Status
Arrival Demand Charts


Server Software By:
Icecast.org
Liquidsoap

Please make a donation to help us keep growing!